Capitol Logistics 405


KBNA
Nashville International Airport
Nashville, Tennessee, US
KMIA
Miami International Airport
Miami, Florida, US

Activity Log

Date Flight Route Aircraft Duration
07/18/2020 CPX405 TIPPN3 BRXTN BULZI NICKI Q81 ENDEW JUULI SSCOT5 B752 2h 04m
11/27/2019 CPX405 TIPPN3 BRXTN OTK SSCOT4 B738 2h 06m
06/14/2019 CPX405 TIPPN3 BRXTN BULZI NICKI Q81 ENDEW JUULI SSCOT5 B752 2h 18m
03/30/2019 CPX405 TIPPN3 BRXTN BULZI NICKI Q81 ENDEW JUULI SSCOT5 B752 1h 58m
03/30/2019 CPX405 TIPPN3 BRXTN BULZI NICKI Q81 ENDEW JUULI SSCOT5 B752 2h 16m

Route Details

Aircraft Information
Primary: Boeing 757-200SF
Backup: Boeing 737-800BCF
Route Data
Distance: 702nm
Sched. Duration: 1h 58m
Avg. Duration: 2h 00m (+43m)
Times Flown: 5
Recm'd Route: TIPPN3 BRXTN BULZI NICKI Q81 ENDEW JUULI SSCOT5
Planned Altitude: 37,000ft
Origin Wx: KBNA 080553Z 00000KT 10SM CLR 23/18 A3015 RMK AO2 SLP201 T02330183 10289 20228 403220200 $
Dest. Wx: KMIA 080553Z 11007KT 10SM FEW030 BKN250 29/24 A3010 RMK AO2 SLP191 T02890244 10300 20289 58014
Notes:

Financial History
Total Freight: 243,729lbs
Average Load: 48,746lbs/flt
Fuel Used: 70,960lbs
Avg. Fuel Used: 14,192lbs/flt
Fuel Expense: $61,026
Avg. Fuel Expense: $12,205
Avg. Fuel Cost: $0.86/lbs
Total Gross Income: $332,480
Pilot Pay: $535
Total Expenses: $36,168
Total Revenue: $233,610
Average Revenue: $66,496.08